createdAt,value
2017-11-12T00:01:26.039Z,4.50
2017-11-12T00:03:53.505Z,5.37
2017-11-12T00:06:24.690Z,5.00
2017-11-12T00:08:53.672Z,5.30
2017-11-12T00:11:21.135Z,4.50
2017-11-12T00:13:48.599Z,4.57
2017-11-12T00:16:16.157Z,5.10
2017-11-12T00:18:43.718Z,4.87
2017-11-12T00:21:12.693Z,5.03
2017-11-12T00:23:40.169Z,5.43
2017-11-12T00:26:07.734Z,4.93
2017-11-12T00:28:35.196Z,4.80
2017-11-12T00:31:02.685Z,4.87
2017-11-12T00:33:30.200Z,4.40
2017-11-12T00:35:57.668Z,4.63
2017-11-12T00:38:25.136Z,4.73
2017-11-12T00:40:53.382Z,4.80
2017-11-12T00:43:20.853Z,4.77
2017-11-12T00:45:48.433Z,4.63
2017-11-12T00:48:16.667Z,6.20
2017-11-12T00:50:44.136Z,4.90
2017-11-12T00:53:11.607Z,5.60
2017-11-12T00:55:39.428Z,5.20
2017-11-12T00:58:06.892Z,5.13
2017-11-12T01:00:34.386Z,5.93
2017-11-12T01:03:01.949Z,5.73
2017-11-12T01:05:29.425Z,5.40
2017-11-12T01:07:57.749Z,5.40
2017-11-12T01:10:25.213Z,5.30
2017-11-12T01:12:52.701Z,5.97
2017-11-12T01:15:20.174Z,4.70
2017-11-12T01:17:53.584Z,5.23
2017-11-12T01:20:21.821Z,4.97
2017-11-12T01:22:49.388Z,5.03
2017-11-12T01:25:16.860Z,4.93
2017-11-12T01:27:44.408Z,4.70
2017-11-12T01:30:11.887Z,5.43
2017-11-12T01:32:40.128Z,4.23
2017-11-12T01:35:07.597Z,4.70
2017-11-12T01:37:35.055Z,4.47
2017-11-12T01:40:02.512Z,5.50
2017-11-12T01:42:29.991Z,4.30
2017-11-12T01:44:58.253Z,4.67
2017-11-12T01:47:25.726Z,4.67
2017-11-12T01:49:53.993Z,4.47
2017-11-12T01:52:21.463Z,4.93
2017-11-12T01:54:49.693Z,4.60
2017-11-12T01:57:17.177Z,4.40
2017-11-12T01:59:44.739Z,3.93
2017-11-12T02:02:13.013Z,4.47
2017-11-12T02:04:40.585Z,4.03
2017-11-12T02:07:09.556Z,4.87
2017-11-12T02:09:37.032Z,3.47
2017-11-12T02:12:04.510Z,3.93
2017-11-12T02:14:32.755Z,5.93
2017-11-12T02:17:00.225Z,3.83
2017-11-12T02:19:27.687Z,4.93
2017-11-12T02:21:55.945Z,3.97
2017-11-12T02:24:23.413Z,4.37
2017-11-12T02:26:50.973Z,4.93
2017-11-12T02:29:18.446Z,4.43
2017-11-12T02:31:46.677Z,3.83
2017-11-12T02:34:14.153Z,4.30
2017-11-12T02:36:41.623Z,5.00
2017-11-12T02:39:09.089Z,4.30
2017-11-12T02:41:36.636Z,4.33
2017-11-12T02:44:04.104Z,4.70
2017-11-12T02:46:31.658Z,4.60
2017-11-12T02:48:59.215Z,5.03
2017-11-12T02:51:26.682Z,5.13
2017-11-12T02:53:54.156Z,5.43
2017-11-12T02:56:22.384Z,6.07
2017-11-12T02:58:49.868Z,5.73
2017-11-12T03:01:17.329Z,6.90
2017-11-12T03:03:44.884Z,5.40
2017-11-12T03:06:12.443Z,6.03
2017-11-12T03:08:40.005Z,6.33
2017-11-12T03:11:07.566Z,6.07
2017-11-12T03:13:35.041Z,5.70
2017-11-12T03:16:03.267Z,5.80
2017-11-12T03:18:30.766Z,6.20
2017-11-12T03:20:58.344Z,6.67
2017-11-12T03:23:25.807Z,6.40
2017-11-12T03:25:54.041Z,6.77
2017-11-12T03:28:21.512Z,6.13
2017-11-12T03:30:48.984Z,6.57
2017-11-12T03:33:16.440Z,7.00
2017-11-12T03:35:43.993Z,6.47
2017-11-12T03:38:11.460Z,5.03
2017-11-12T03:40:39.733Z,7.53
2017-11-12T03:43:07.285Z,5.53
2017-11-12T03:45:34.777Z,6.50
2017-11-12T03:48:02.241Z,5.90
2017-11-12T03:50:29.769Z,5.13
2017-11-12T03:52:57.252Z,6.20
2017-11-12T03:55:25.488Z,6.40
2017-11-12T03:57:52.955Z,5.30
2017-11-12T04:00:20.426Z,5.13
2017-11-12T04:02:48.694Z,5.37
2017-11-12T04:05:16.245Z,5.93
2017-11-12T04:07:43.818Z,6.00
2017-11-12T04:10:11.290Z,5.27
2017-11-12T04:12:39.542Z,5.07
2017-11-12T04:15:07.019Z,4.73
2017-11-12T04:17:35.242Z,4.57
2017-11-12T04:20:02.717Z,5.50
2017-11-12T04:22:30.177Z,5.93
2017-11-12T04:24:57.753Z,5.03
2017-11-12T04:27:25.218Z,5.40
2017-11-12T04:29:52.692Z,5.03
2017-11-12T04:32:20.161Z,5.57
2017-11-12T04:34:47.630Z,5.43
2017-11-12T04:37:15.101Z,4.80
2017-11-12T04:39:42.572Z,6.00
2017-11-12T04:42:10.044Z,3.70
2017-11-12T04:44:37.607Z,4.20
2017-11-12T04:47:05.077Z,5.23
2017-11-12T04:49:32.542Z,4.60
2017-11-12T04:52:00.023Z,4.53
2017-11-12T04:54:28.253Z,5.40
2017-11-12T04:56:55.721Z,5.37
2017-11-12T04:59:23.292Z,4.40
2017-11-12T05:01:50.783Z,4.40
2017-11-12T05:04:18.317Z,5.37
2017-11-12T05:06:45.789Z,6.10
2017-11-12T05:09:14.105Z,4.13
2017-11-12T05:11:41.574Z,4.23
2017-11-12T05:14:09.073Z,4.20
2017-11-12T05:16:37.332Z,6.20
2017-11-12T05:19:05.000Z,4.30
2017-11-12T05:21:32.459Z,3.83
2017-11-12T05:23:59.922Z,3.63
2017-11-12T05:26:27.392Z,4.50
2017-11-12T05:28:55.634Z,4.47
2017-11-12T05:31:23.109Z,3.10
2017-11-12T05:33:50.650Z,3.53
2017-11-12T05:36:18.136Z,3.87
2017-11-12T05:38:45.602Z,4.03
2017-11-12T05:41:13.841Z,3.73
2017-11-12T05:43:41.298Z,4.60
2017-11-12T05:46:08.764Z,4.17
2017-11-12T05:48:36.233Z,4.30
2017-11-12T05:51:03.714Z,4.70
2017-11-12T05:53:31.949Z,4.70
2017-11-12T05:55:59.409Z,4.87
2017-11-12T05:58:26.889Z,5.83
2017-11-12T06:00:54.350Z,4.57
2017-11-12T06:03:22.588Z,5.67
2017-11-12T06:05:50.057Z,4.20
2017-11-12T06:08:17.524Z,5.33
2017-11-12T06:10:45.011Z,4.33
2017-11-12T06:13:13.253Z,5.30
2017-11-12T06:15:40.718Z,6.23
2017-11-12T06:18:08.196Z,5.60
2017-11-12T06:20:35.672Z,6.27
2017-11-12T06:23:03.931Z,5.97
2017-11-12T06:25:32.176Z,8.00
2017-11-12T06:27:59.662Z,6.43
2017-11-12T06:30:27.122Z,7.50
2017-11-12T06:32:54.601Z,6.67
2017-11-12T06:35:22.060Z,8.83
2017-11-12T06:37:49.548Z,7.60
2017-11-12T06:40:17.024Z,7.77
2017-11-12T06:42:44.511Z,7.37
2017-11-12T06:45:12.066Z,7.90
2017-11-12T06:47:39.536Z,9.27
2017-11-12T06:50:07.806Z,7.77
2017-11-12T06:52:35.281Z,7.70
2017-11-12T06:55:03.550Z,7.80
2017-11-12T06:57:31.793Z,6.67
2017-11-12T06:59:59.259Z,5.87
2017-11-12T07:02:26.834Z,8.93
2017-11-12T07:04:54.317Z,6.93
2017-11-12T07:07:21.786Z,6.93
2017-11-12T07:09:49.263Z,7.10
2017-11-12T07:12:16.722Z,7.30
2017-11-12T07:14:44.219Z,6.47
2017-11-12T07:17:11.681Z,6.73
2017-11-12T07:19:39.165Z,7.20
2017-11-12T07:22:07.401Z,6.07
2017-11-12T07:24:34.973Z,5.53
2017-11-12T07:27:02.539Z,5.97
2017-11-12T07:29:30.017Z,5.70
2017-11-12T07:31:57.497Z,5.03
2017-11-12T07:34:24.968Z,4.70
2017-11-12T07:36:52.469Z,5.47
2017-11-12T07:39:20.037Z,5.23
2017-11-12T07:41:47.585Z,5.87
2017-11-12T07:44:15.066Z,5.63
2017-11-12T07:46:43.328Z,6.33
2017-11-12T07:49:11.588Z,5.53
2017-11-12T07:51:39.051Z,5.80
2017-11-12T07:54:06.533Z,6.20
2017-11-12T07:56:34.774Z,5.40
2017-11-12T07:59:02.253Z,6.93
2017-11-12T08:01:29.736Z,5.70
2017-11-12T08:03:57.217Z,5.93
2017-11-12T08:06:24.693Z,6.60
2017-11-12T08:08:52.180Z,5.73
2017-11-12T08:11:19.740Z,5.80
2017-11-12T08:13:47.219Z,6.10
2017-11-12T08:16:15.478Z,5.83
2017-11-12T08:18:42.951Z,4.20
2017-11-12T08:21:11.534Z,4.80
2017-11-12T08:23:39.800Z,5.63
2017-11-12T08:26:07.361Z,4.90
2017-11-12T08:28:34.841Z,4.40
2017-11-12T08:31:03.090Z,4.77
2017-11-12T08:33:30.553Z,4.33
2017-11-12T08:35:58.053Z,5.70
2017-11-12T08:38:26.256Z,5.23
2017-11-12T08:40:53.719Z,4.30
2017-11-12T08:43:21.204Z,4.20
2017-11-12T08:45:48.680Z,5.17
2017-11-12T08:48:16.913Z,3.80
2017-11-12T08:50:44.386Z,5.00
2017-11-12T08:53:11.857Z,4.60
2017-11-12T08:55:39.341Z,5.03
2017-11-12T08:58:06.878Z,4.80
2017-11-12T09:00:35.142Z,5.27
2017-11-12T09:03:02.701Z,4.03
2017-11-12T09:05:30.949Z,5.90
2017-11-12T09:07:58.418Z,4.00
2017-11-12T09:10:26.002Z,4.43
2017-11-12T09:12:53.477Z,3.90
2017-11-12T09:15:21.738Z,3.57
2017-11-12T09:17:49.221Z,3.20
2017-11-12T09:20:17.469Z,3.80
2017-11-12T09:22:45.031Z,4.10
2017-11-12T09:25:12.516Z,4.70
2017-11-12T09:27:40.758Z,3.07
2017-11-12T09:30:08.237Z,3.80
2017-11-12T09:32:36.513Z,3.10
2017-11-12T09:35:03.973Z,3.30
2017-11-12T09:37:32.219Z,3.93
2017-11-12T09:39:59.684Z,3.57
2017-11-12T09:42:27.166Z,4.13
2017-11-12T09:44:55.401Z,5.47
2017-11-12T09:47:22.884Z,4.80
2017-11-12T09:49:50.353Z,4.27
2017-11-12T09:52:17.833Z,4.30
2017-11-12T09:54:45.300Z,5.67
2017-11-12T09:57:12.773Z,6.37
2017-11-12T09:59:40.242Z,4.60
2017-11-12T10:02:07.731Z,4.43
2017-11-12T10:04:35.201Z,4.23
2017-11-12T10:07:02.678Z,4.87
2017-11-12T10:09:30.905Z,4.70
2017-11-12T10:11:58.384Z,4.80
2017-11-12T10:14:25.857Z,3.53
2017-11-12T10:16:54.095Z,3.80
2017-11-12T10:19:21.567Z,4.23
2017-11-12T10:21:49.868Z,3.37
2017-11-12T10:24:17.333Z,3.53
2017-11-12T10:26:45.580Z,4.53
2017-11-12T10:29:13.059Z,4.50
2017-11-12T10:31:40.538Z,5.03
2017-11-12T10:34:08.772Z,4.47
2017-11-12T10:36:36.238Z,4.33
2017-11-12T10:39:03.708Z,4.67
2017-11-12T10:41:31.189Z,4.70
2017-11-12T10:43:58.665Z,4.77
2017-11-12T10:46:26.185Z,5.87
2017-11-12T10:48:53.600Z,5.43
2017-11-12T10:51:21.069Z,6.03
2017-11-12T10:53:48.548Z,4.90
2017-11-12T10:56:16.019Z,3.87
2017-11-12T10:58:43.481Z,4.37
2017-11-12T11:01:11.717Z,4.70
2017-11-12T11:03:39.185Z,5.17
2017-11-12T11:06:06.659Z,3.60
2017-11-12T11:08:34.131Z,4.23
2017-11-12T11:11:02.369Z,4.77
2017-11-12T11:13:29.849Z,3.43
2017-11-12T11:15:57.311Z,3.77
2017-11-12T11:18:24.776Z,3.40
2017-11-12T11:20:52.228Z,3.20
2017-11-12T11:23:19.700Z,3.17
2017-11-12T11:25:47.980Z,2.70
2017-11-12T11:28:16.221Z,3.80
2017-11-12T11:30:43.685Z,3.60
2017-11-12T11:33:11.165Z,2.70
2017-11-12T11:35:38.627Z,2.70
2017-11-12T11:38:06.927Z,3.43
2017-11-12T11:40:34.388Z,4.77
2017-11-12T11:43:01.853Z,4.20
2017-11-12T11:45:29.382Z,2.90
2017-11-12T11:47:56.849Z,2.97
2017-11-12T11:50:25.077Z,3.90
2017-11-12T11:52:52.564Z,3.30
2017-11-12T11:55:20.028Z,2.90
2017-11-12T11:57:47.507Z,3.10
2017-11-12T12:00:14.970Z,3.00
2017-11-12T12:02:42.438Z,2.77
2017-11-12T12:05:09.894Z,2.97
2017-11-12T12:07:37.350Z,2.40
2017-11-12T12:10:04.818Z,2.87
2017-11-12T12:12:32.281Z,3.10
2017-11-12T12:14:59.757Z,2.73
2017-11-12T12:17:27.232Z,3.30
2017-11-12T12:19:54.705Z,3.60
2017-11-12T12:22:22.157Z,2.33
2017-11-12T12:24:49.634Z,2.37
2017-11-12T12:27:17.862Z,2.97
2017-11-12T12:29:45.340Z,2.53
2017-11-12T12:32:12.819Z,3.13
2017-11-12T12:34:40.309Z,2.50
2017-11-12T12:37:07.768Z,2.70
2017-11-12T12:39:35.261Z,2.90
2017-11-12T12:42:02.728Z,2.50
2017-11-12T12:44:30.203Z,2.57
2017-11-12T12:46:57.677Z,2.63
2017-11-12T12:49:25.908Z,2.27
2017-11-12T12:51:53.377Z,2.80
2017-11-12T12:54:20.842Z,3.30
2017-11-12T12:56:48.309Z,2.90
2017-11-12T12:59:15.782Z,3.30
2017-11-12T13:01:44.005Z,2.60
2017-11-12T13:04:11.484Z,3.50
2017-11-12T13:06:38.941Z,2.80
2017-11-12T13:09:06.401Z,3.20
2017-11-12T13:11:33.894Z,3.43
2017-11-12T13:14:02.122Z,3.43
2017-11-12T13:16:29.599Z,3.60
2017-11-12T13:18:57.064Z,3.10
2017-11-12T13:21:24.532Z,2.80
2017-11-12T13:23:51.998Z,3.30
2017-11-12T13:26:20.242Z,3.30
2017-11-12T13:28:47.719Z,4.10
2017-11-12T13:31:15.209Z,3.83
2017-11-12T13:33:43.434Z,3.50
2017-11-12T13:36:10.905Z,3.70
2017-11-12T13:38:38.369Z,3.40
2017-11-12T13:41:05.835Z,4.10
2017-11-12T13:43:33.289Z,5.70
2017-11-12T13:46:00.770Z,4.20
2017-11-12T13:48:28.996Z,4.00
2017-11-12T13:53:49.256Z,4.60
2017-11-12T13:56:17.489Z,4.30
2017-11-12T13:58:44.965Z,5.03
2017-11-12T14:01:12.448Z,5.37
2017-11-12T14:03:39.933Z,5.30
2017-11-12T14:06:07.413Z,4.97
2017-11-12T14:08:34.878Z,5.77
2017-11-12T14:11:03.125Z,5.40
2017-11-12T14:13:30.606Z,5.50
2017-11-12T14:15:58.083Z,5.80
2017-11-12T14:18:25.550Z,6.23
2017-11-12T14:20:53.028Z,6.60
2017-11-12T14:23:21.270Z,6.23
2017-11-12T14:25:48.749Z,6.27
2017-11-12T14:28:16.213Z,6.93
2017-11-12T14:30:43.721Z,6.23
2017-11-12T14:33:11.205Z,5.90
2017-11-12T14:35:38.680Z,6.83
2017-11-12T14:38:06.142Z,8.10
2017-11-12T14:40:33.600Z,6.57
2017-11-12T14:43:01.070Z,5.83
2017-11-12T14:45:29.289Z,6.30
2017-11-12T14:47:56.771Z,5.83
2017-11-12T14:50:24.229Z,6.43
2017-11-12T14:52:51.716Z,6.90
2017-11-12T14:55:19.956Z,10.80
2017-11-12T14:57:47.486Z,9.50
2017-11-12T15:00:14.957Z,4.77
2017-11-12T15:02:42.428Z,4.60
2017-11-12T15:05:09.904Z,3.53
2017-11-12T15:07:37.431Z,4.30
2017-11-12T15:10:04.902Z,4.40
2017-11-12T15:12:32.372Z,3.70
2017-11-12T15:14:59.849Z,3.93
2017-11-12T15:17:27.313Z,5.93
2017-11-12T15:19:55.552Z,6.00
2017-11-12T15:22:23.029Z,8.00
2017-11-12T15:24:50.506Z,7.87
2017-11-12T15:27:17.991Z,4.90
2017-11-12T15:29:45.444Z,7.10
2017-11-12T15:32:12.912Z,7.23
2017-11-12T15:34:40.377Z,5.67
2017-11-12T15:37:07.860Z,6.70
2017-11-12T15:39:35.326Z,7.83
2017-11-12T15:42:02.797Z,5.63
2017-11-12T15:44:30.281Z,4.93
2017-11-12T15:46:58.528Z,4.30
2017-11-12T15:49:25.993Z,4.87
2017-11-12T15:51:53.453Z,4.80
2017-11-12T15:54:21.701Z,5.00
2017-11-12T15:56:49.185Z,4.17
2017-11-12T15:59:16.686Z,5.07
2017-11-12T16:01:44.156Z,4.23
2017-11-12T16:04:11.623Z,3.70
2017-11-12T16:06:39.080Z,5.27
2017-11-12T16:09:06.549Z,4.30
2017-11-12T16:11:34.011Z,4.03
2017-11-12T16:14:01.489Z,4.10
2017-11-12T16:16:28.967Z,4.13
2017-11-12T16:18:57.215Z,4.10
2017-11-12T16:21:24.687Z,3.97
2017-11-12T16:23:52.170Z,4.73
2017-11-12T16:26:20.409Z,5.20
2017-11-12T16:28:47.886Z,5.03
2017-11-12T16:31:15.343Z,6.83
2017-11-12T16:33:42.836Z,5.87
2017-11-12T16:36:11.056Z,6.87
2017-11-12T16:38:38.536Z,6.37
2017-11-12T16:41:06.003Z,6.50
2017-11-12T16:43:34.249Z,7.07
2017-11-12T16:46:01.718Z,5.60
2017-11-12T16:48:29.187Z,4.90
2017-11-12T16:50:56.652Z,5.47
2017-11-12T16:53:24.905Z,6.17
2017-11-12T16:55:52.379Z,7.77
2017-11-12T16:58:19.867Z,7.90
2017-11-12T17:00:47.329Z,6.00
2017-11-12T17:03:14.817Z,6.20
2017-11-12T17:05:42.283Z,6.10
2017-11-12T17:08:09.761Z,5.33
2017-11-12T17:10:37.239Z,4.80
2017-11-12T17:13:05.489Z,4.90
2017-11-12T17:15:32.965Z,4.73
2017-11-12T17:18:00.433Z,6.70
2017-11-12T17:20:28.678Z,9.57
2017-11-12T17:22:56.146Z,6.17
2017-11-12T17:25:23.621Z,5.93
2017-11-12T17:27:51.852Z,5.10
2017-11-12T17:30:19.326Z,5.13
2017-11-12T17:32:46.790Z,4.50
2017-11-12T17:35:14.261Z,8.50
2017-11-12T17:37:41.736Z,5.13
2017-11-12T17:40:09.977Z,4.03
2017-11-12T17:42:37.445Z,3.60
2017-11-12T17:45:04.925Z,3.87
2017-11-12T17:47:33.161Z,3.00
2017-11-12T17:50:00.641Z,2.60
2017-11-12T17:52:28.106Z,2.80
2017-11-12T17:54:56.352Z,3.07
2017-11-12T17:57:23.816Z,3.37
2017-11-12T17:59:51.290Z,3.70
2017-11-12T18:02:18.757Z,3.23
2017-11-12T18:04:47.008Z,7.10
2017-11-12T18:07:14.477Z,4.27
2017-11-12T18:09:42.042Z,3.57
2017-11-12T18:12:09.539Z,3.40
2017-11-12T18:14:37.032Z,4.00
2017-11-12T18:17:04.495Z,3.27
2017-11-12T18:19:31.956Z,2.00
2017-11-12T18:21:59.432Z,2.80
2017-11-12T18:24:26.898Z,2.80
2017-11-12T18:26:54.367Z,2.70
2017-11-12T18:29:21.830Z,3.13
2017-11-12T18:31:50.078Z,2.60
2017-11-12T18:34:17.536Z,1.90
2017-11-12T18:36:45.040Z,1.90
2017-11-12T18:39:13.285Z,2.60
2017-11-12T18:41:40.775Z,1.97
2017-11-12T18:44:08.238Z,2.50
2017-11-12T18:46:35.718Z,2.03
2017-11-12T18:49:03.181Z,2.33
2017-11-12T18:51:30.652Z,2.37
2017-11-12T18:53:58.109Z,2.87
2017-11-12T18:59:33.888Z,2.80
2017-11-12T19:02:07.169Z,3.57
2017-11-12T19:07:45.019Z,5.20
2017-11-12T19:10:12.486Z,3.07
2017-11-12T19:12:39.961Z,3.67
2017-11-12T19:15:08.189Z,3.53
2017-11-12T19:17:52.378Z,3.80
2017-11-12T19:20:24.027Z,3.43
2017-11-12T19:23:08.084Z,4.20
2017-11-12T19:25:51.321Z,4.50
2017-11-12T19:28:19.565Z,3.90
2017-11-12T19:30:47.029Z,4.20
2017-11-12T19:33:15.283Z,3.67
2017-11-12T19:35:42.757Z,4.20
2017-11-12T19:38:10.241Z,4.30
2017-11-12T19:40:38.481Z,4.93
2017-11-12T19:43:05.950Z,4.10
2017-11-12T19:45:33.416Z,4.70
2017-11-12T19:48:00.882Z,4.23
2017-11-12T19:50:29.119Z,3.60
2017-11-12T19:52:56.609Z,4.77
2017-11-12T19:55:24.069Z,4.93
2017-11-12T19:57:51.539Z,4.60
2017-11-12T20:00:19.767Z,5.13
2017-11-12T20:02:47.249Z,5.50
2017-11-12T20:05:14.729Z,5.57
2017-11-12T20:07:42.982Z,6.70
2017-11-12T20:10:10.467Z,6.07
2017-11-12T20:12:38.721Z,6.40
2017-11-12T20:15:06.176Z,7.20
2017-11-12T20:17:33.656Z,6.63
2017-11-12T20:20:01.885Z,6.80
2017-11-12T20:22:29.372Z,8.20
2017-11-12T20:24:56.845Z,7.83
2017-11-12T20:27:25.114Z,8.20
2017-11-12T20:29:52.591Z,8.17
2017-11-12T20:32:20.819Z,7.60
2017-11-12T20:34:48.321Z,7.70
2017-11-12T20:37:16.563Z,7.57
2017-11-12T20:39:44.141Z,6.90
2017-11-12T20:42:11.688Z,8.57
2017-11-12T20:44:39.169Z,7.33
2017-11-12T20:47:07.396Z,8.67
2017-11-12T20:49:34.879Z,8.50
2017-11-12T20:52:02.358Z,8.43
2017-11-12T20:54:30.608Z,8.07
2017-11-12T20:56:58.071Z,8.57
2017-11-12T20:59:25.549Z,8.63
2017-11-12T21:01:53.018Z,8.50
2017-11-12T21:04:21.826Z,8.13
2017-11-12T21:06:49.308Z,8.93
2017-11-12T21:09:16.776Z,8.23
2017-11-12T21:11:44.306Z,8.07
2017-11-12T21:14:11.781Z,8.40
2017-11-12T21:16:39.249Z,8.50
2017-11-12T21:19:10.606Z,8.87
2017-11-12T21:21:39.009Z,9.70
2017-11-12T21:24:19.464Z,10.33
2017-11-12T21:27:04.881Z,10.40
2017-11-12T21:29:33.009Z,9.30
2017-11-12T21:32:00.495Z,9.30
2017-11-12T21:34:27.965Z,10.73
2017-11-12T21:37:11.096Z,9.50
2017-11-12T21:39:38.819Z,10.90
2017-11-12T21:42:06.454Z,9.70
2017-11-12T21:44:33.931Z,11.63
2017-11-12T21:47:01.414Z,12.47
2017-11-12T21:49:28.894Z,12.60
2017-11-12T21:51:57.144Z,12.73
2017-11-12T21:54:24.686Z,13.37
2017-11-12T21:56:52.195Z,13.67
2017-11-12T21:59:19.682Z,15.73
2017-11-12T22:01:47.165Z,14.00
2017-11-12T22:04:14.644Z,16.10
2017-11-12T22:06:42.198Z,15.67
2017-11-12T22:09:09.919Z,16.23
2017-11-12T22:11:37.682Z,17.10
2017-11-12T22:14:05.177Z,17.30
2017-11-12T22:16:32.662Z,19.10
2017-11-12T22:19:00.922Z,19.80
2017-11-12T22:21:28.405Z,19.40
2017-11-12T22:23:56.645Z,19.13
2017-11-12T22:26:24.210Z,19.80
2017-11-12T22:28:51.693Z,22.30
2017-11-12T22:31:19.936Z,20.60
2017-11-12T22:33:47.509Z,21.03
2017-11-12T22:36:14.992Z,24.90
2017-11-12T22:38:43.237Z,22.07
2017-11-12T22:41:10.734Z,22.27
2017-11-12T22:43:39.143Z,22.73
2017-11-12T22:46:06.660Z,24.30
2017-11-12T22:48:34.917Z,24.20
2017-11-12T22:51:02.489Z,23.13
2017-11-12T22:53:30.765Z,23.33
2017-11-12T22:55:58.317Z,25.10
2017-11-12T22:58:25.795Z,25.43
2017-11-12T23:00:57.880Z,26.10
2017-11-12T23:03:25.369Z,25.67
2017-11-12T23:05:52.842Z,25.50
2017-11-12T23:08:20.427Z,24.90
2017-11-12T23:10:48.682Z,28.00
2017-11-12T23:13:16.159Z,27.70
2017-11-12T23:15:44.408Z,30.63
2017-11-12T23:18:11.877Z,31.70
2017-11-12T23:20:39.350Z,30.97
2017-11-12T23:23:06.828Z,32.17
2017-11-12T23:25:35.189Z,32.80
2017-11-12T23:28:02.695Z,31.70
2017-11-12T23:30:30.256Z,30.10
2017-11-12T23:32:57.749Z,31.23
2017-11-12T23:35:25.250Z,28.40
2017-11-12T23:37:52.721Z,28.60
2017-11-12T23:40:20.218Z,29.90
2017-11-12T23:42:47.764Z,30.17
2017-11-12T23:45:15.421Z,29.57
2017-11-12T23:47:43.147Z,30.30
2017-11-12T23:50:10.652Z,26.37
2017-11-12T23:52:38.130Z,27.43
2017-11-12T23:55:05.706Z,27.57
2017-11-12T23:57:33.950Z,26.40
